LYBE/BEG METAR and TAF weather

Enter ICAO airport designator
Station Type Date Time Source
LYBE METAR 2020/02/29 02:30 UTC NOAA

LYBE 290230Z 27009KT CAVOK 00/M02 Q1021 NOSIG


Station Type Date Time Source
LYBE Decoded METAR 2020/02/29 02:30 UTC NOAA

Beograd / Surcin, Serbia and Montenegro (LYBE) 44-49N 020-17E 99M
Feb 28, 2020 - 09:30 PM EST / 2020.02.29 0230 UTC
Wind: from the W (270 degrees) at 10 MPH (9 KT):0
Visibility: greater than 7 mile(s):0
Temperature: 32 F (0 C)
Windchill: 23 F (-5 C):1
Dew Point: 28 F (-2 C)
Relative Humidity: 86%
Pressure (altimeter): 30.15 in. Hg (1021 hPa)
ob: LYBE 290230Z 27009KT CAVOK 00/M02 Q1021 NOSIG
cycle: 2

Station Type Date Time Source
LYBE TAF 2020/02/28 18:21 UTC NOAA

TAF LYBE 281700Z 2818/2918 31018KT 9999 SCT040 TX10/2913Z TNM02/2905Z PROB30
TEMPO 2818/2820 32025G35KT 4000 SHSN SCT008 SCT027TCU
BECMG 2823/2901 27006KT
TEMPO 2903/2906 3000 BR
BECMG 2909/2911 16010KT

Example: see airport list